Time;durP1;ratioP1;P1;durP2;ratioP2;P2;SDS_P1;SDS_P2;PMS_P1;PMS_P2;Temp;Humidity;BMP_temperature;BMP_pressure;BME280_temperature;BME280_humidity;BME280_pressure;Samples;Min_cycle;Max_cycle;Signal;HPM_P1;HPM_P2
2024/04/09 00:02:07;;;;;;;14.00;11.07;;;;;;;11.41;100.00;100426.03;5311260;26;20851;-74
2024/04/09 00:04:36;;;;;;;18.40;11.53;;;;;;;13.26;100.00;100722.59;5309319;26;20488;-74
2024/04/09 00:07:02;;;;;;;18.17;11.77;;;;;;;11.93;100.00;100491.28;5315017;26;20245;-74
2024/04/09 00:09:29;;;;;;;16.20;11.17;;;;;;;11.89;100.00;100516.94;5310589;26;20471;-74
2024/04/09 00:11:55;;;;;;;15.23;10.70;;;;;;;11.85;100.00;100518.38;5314800;26;20567;-74
2024/04/09 00:14:21;;;;;;;15.17;11.43;;;;;;;12.31;100.00;100547.69;5317746;26;20550;-74
2024/04/09 00:16:47;;;;;;;17.17;12.90;;;;;;;11.94;100.00;100488.38;5313476;26;21018;-74
2024/04/09 00:19:17;;;;;;;15.03;11.87;;;;;;;12.51;100.00;100562.88;5313209;26;20524;-74
2024/04/09 00:21:44;;;;;;;16.33;11.60;;;;;;;12.44;100.00;100557.56;5316606;26;20773;-74
2024/04/09 00:24:10;;;;;;;17.63;11.77;;;;;;;11.57;100.00;100393.31;5311621;26;20496;-74
2024/04/09 00:26:36;;;;;;;15.67;12.17;;;;;;;11.77;100.00;100439.69;5307964;26;20473;-74
2024/04/09 00:29:01;;;;;;;14.80;11.00;;;;;;;12.62;100.00;100563.00;5312567;26;20475;-74
2024/04/09 00:31:27;;;;;;;16.10;11.30;;;;;;;12.66;100.00;100561.50;5312230;26;20337;-74
2024/04/09 00:33:52;;;;;;;16.07;11.50;;;;;;;12.62;100.00;100554.09;5308880;26;20620;-74
2024/04/09 00:36:19;;;;;;;17.60;12.00;;;;;;;11.83;100.00;100427.25;5341121;26;20675;-74
2024/04/09 00:38:46;;;;;;;20.53;12.03;;;;;;;12.74;100.00;100552.34;5312517;26;20251;-74
2024/04/09 00:41:13;;;;;;;15.83;11.60;;;;;;;12.92;100.00;100594.63;5312567;26;20720;-74
2024/04/09 00:43:39;;;;;;;16.17;11.40;;;;;;;11.72;100.00;100398.38;5311758;26;20477;-74
2024/04/09 00:46:05;;;;;;;15.30;10.77;;;;;;;12.35;100.00;100473.63;5305109;26;20475;-74
2024/04/09 00:48:31;;;;;;;17.57;11.63;;;;;;;11.37;100.00;100310.19;5312342;26;20239;-74
2024/04/09 00:50:57;;;;;;;15.97;11.30;;;;;;;11.33;100.00;100300.91;5306138;26;23163;-74
2024/04/09 00:53:23;;;;;;;16.30;10.17;;;;;;;12.26;100.00;100464.16;5306281;26;20243;-74
2024/04/09 00:55:50;;;;;;;16.10;10.30;;;;;;;12.17;100.00;100485.13;5319389;26;21011;-74
2024/04/09 00:58:17;;;;;;;16.07;10.20;;;;;;;11.75;100.00;100400.63;5306041;26;20609;-74
2024/04/09 01:00:43;;;;;;;15.10;10.53;;;;;;;12.48;100.00;100514.91;5308287;26;20671;-74
2024/04/09 01:03:10;;;;;;;13.93;10.70;;;;;;;12.84;100.00;100555.38;5309417;26;20538;-74
2024/04/09 01:05:36;;;;;;;16.60;11.20;;;;;;;12.15;100.00;100489.91;5312248;26;20581;-74
2024/04/09 01:08:03;;;;;;;19.93;10.97;;;;;;;12.03;100.00;100440.53;5312159;26;20542;-74
2024/04/09 01:10:28;;;;;;;17.73;10.50;;;;;;;11.61;100.00;100399.88;5313230;26;20498;-74
2024/04/09 01:12:54;;;;;;;17.80;10.43;;;;;;;12.95;100.00;100559.19;5313636;26;20600;-74
2024/04/09 01:15:20;;;;;;;13.50;9.30;;;;;;;12.55;100.00;100502.19;5310493;26;20253;-74
2024/04/09 01:17:45;;;;;;;14.57;9.20;;;;;;;11.86;100.00;100378.47;5309693;26;20242;-74
2024/04/09 01:20:13;;;;;;;13.93;9.33;;;;;;;12.63;100.00;100491.16;5315355;26;20250;-74
2024/04/09 01:22:39;;;;;;;18.97;10.57;;;;;;;13.30;100.00;100580.22;5316721;26;20352;-74
2024/04/09 01:25:04;;;;;;;12.90;9.77;;;;;;;11.80;100.00;100341.66;5313129;26;20521;-74
2024/04/09 01:27:32;;;;;;;15.33;10.30;;;;;;;12.15;100.00;100395.81;5309513;26;20535;-74
2024/04/09 01:29:57;;;;;;;12.20;9.07;;;;;;;12.60;100.00;100448.56;5307854;26;20242;-74
2024/04/09 01:32:25;;;;;;;17.97;10.83;;;;;;;12.86;100.00;100494.06;5308376;26;21235;-74
2024/04/09 01:34:51;;;;;;;16.03;10.20;;;;;;;14.00;100.00;100658.03;5311797;26;20244;-74
2024/04/09 01:37:17;;;;;;;18.50;10.20;;;;;;;13.18;100.00;100530.81;5310716;26;21088;-74
2024/04/09 01:39:45;;;;;;;18.67;10.50;;;;;;;11.14;100.00;100181.91;5306769;26;20523;-74
2024/04/09 01:42:11;;;;;;;15.43;10.70;;;;;;;12.22;100.00;100331.22;5310184;26;20539;-74
2024/04/09 01:44:37;;;;;;;14.70;9.40;;;;;;;11.41;100.00;100206.66;5308876;26;21186;-74
2024/04/09 01:47:05;;;;;;;14.77;10.83;;;;;;;12.42;100.00;100350.66;5308122;26;20558;-74
2024/04/09 01:49:31;;;;;;;17.50;10.03;;;;;;;12.14;100.00;100291.97;5303097;26;20479;-74
2024/04/09 01:51:57;;;;;;;14.73;9.87;;;;;;;12.10;100.00;100322.22;5313443;26;20470;-74
2024/04/09 01:54:22;;;;;;;14.97;11.03;;;;;;;12.09;100.00;100302.59;5309338;26;20526;-74
2024/04/09 01:56:48;;;;;;;18.10;10.60;;;;;;;12.47;100.00;100376.03;5311961;26;22229;-74
2024/04/09 01:59:14;;;;;;;13.33;9.17;;;;;;;11.49;100.00;100173.34;5309990;26;20248;-74
2024/04/09 02:01:42;;;;;;;12.60;8.90;;;;;;;11.75;100.00;100228.69;5305321;26;20592;-74
2024/04/09 02:04:08;;;;;;;15.80;10.03;;;;;;;13.79;100.00;100564.94;5307531;26;20247;-74
2024/04/09 02:06:36;;;;;;;14.27;9.43;;;;;;;12.72;100.00;100349.91;5305788;26;21870;-74
2024/04/09 02:09:02;;;;;;;14.17;9.67;;;;;;;12.92;100.00;100381.97;5310868;26;20294;-74
2024/04/09 02:11:28;;;;;;;17.97;10.30;;;;;;;11.95;100.00;100223.13;5309446;26;20595;-74
2024/04/09 02:13:55;;;;;;;18.90;9.13;;;;;;;12.61;100.00;100331.81;5305293;26;21072;-74
2024/04/09 02:16:21;;;;;;;15.03;10.00;;;;;;;13.24;100.00;100441.03;5309240;26;20523;-74
2024/04/09 02:18:47;;;;;;;15.63;8.93;;;;;;;11.00;100.00;100030.91;5312676;26;20656;-74
2024/04/09 02:21:15;;;;;;;11.97;8.70;;;;;;;11.07;100.00;100049.59;5321114;26;20601;-74
2024/04/09 02:23:44;;;;;;;17.07;9.10;;;;;;;11.80;100.00;100169.69;5310031;26;20271;-74
2024/04/09 02:26:10;;;;;;;15.20;10.20;;;;;;;11.70;100.00;100135.28;5307313;26;20844;-74
2024/04/09 02:28:35;;;;;;;12.57;8.80;;;;;;;11.43;100.00;100121.34;5313505;26;20594;-74
2024/04/09 02:31:04;;;;;;;16.13;9.87;;;;;;;12.58;100.00;100321.50;5303308;26;20523;-74
2024/04/09 02:33:30;;;;;;;17.40;10.27;;;;;;;12.25;100.00;100238.53;5312303;26;20240;-74
2024/04/09 02:35:59;;;;;;;19.33;10.37;;;;;;;13.81;100.00;100438.88;5313401;26;21121;-74
2024/04/09 02:38:26;;;;;;;16.57;10.07;;;;;;;13.08;100.00;100305.97;5291440;26;20588;-74
2024/04/09 02:40:52;;;;;;;14.00;10.00;;;;;;;10.85;100.00;99928.47;5306299;26;20534;-74
2024/04/09 02:43:19;;;;;;;15.63;9.67;;;;;;;11.77;100.00;100100.28;5307204;26;20481;-74
2024/04/09 02:45:44;;;;;;;15.63;10.33;;;;;;;12.14;100.00;100170.19;5306646;26;20838;-74
2024/04/09 02:48:10;;;;;;;14.37;10.23;;;;;;;12.10;100.00;100187.81;5301671;26;20515;-74
2024/04/09 02:50:35;;;;;;;15.87;9.90;;;;;;;12.49;100.00;100240.28;5306651;26;20881;-74
2024/04/09 02:53:01;;;;;;;20.37;10.90;;;;;;;13.55;100.00;100394.25;5317443;26;20951;-74
2024/04/09 02:55:26;;;;;;;15.43;10.23;;;;;;;12.18;100.00;100198.28;5315218;26;20338;-74
2024/04/09 02:57:52;;;;;;;15.93;10.27;;;;;;;12.20;100.00;100196.97;5309893;26;20258;-74
2024/04/09 03:00:22;;;;;;;14.37;10.03;;;;;;;11.22;100.00;100025.91;5342385;26;20826;-74
2024/04/09 03:02:52;;;;;;;17.77;10.20;;;;;;;12.85;100.00;100287.03;5305213;26;20490;-74
2024/04/09 03:05:28;;;;;;;13.90;9.30;;;;;;;12.89;100.00;100286.34;5310575;26;20474;-74
2024/04/09 03:07:53;;;;;;;19.23;9.70;;;;;;;11.51;100.00;100083.44;5314735;26;20470;-74
2024/04/09 03:10:19;;;;;;;15.03;9.90;;;;;;;13.57;100.00;100462.22;5311458;26;20531;-73
2024/04/09 03:12:44;;;;;;;15.57;10.23;;;;;;;13.04;100.00;100390.13;5313176;26;20622;-74
2024/04/09 03:15:12;;;;;;;14.80;10.73;;;;;;;12.89;100.00;100356.31;5316310;26;20760;-74
2024/04/09 03:17:41;;;;;;;14.53;11.50;;;;;;;12.41;100.00;100251.34;5307216;26;20248;-74
2024/04/09 03:20:07;;;;;;;20.43;12.00;;;;;;;11.98;100.00;100212.75;5314778;26;20872;-74
2024/04/09 03:22:32;;;;;;;19.10;13.10;;;;;;;12.78;100.00;100295.19;5306566;26;20478;-74
2024/04/09 03:24:58;;;;;;;20.40;13.80;;;;;;;13.43;100.00;100380.75;5316778;26;20587;-75
2024/04/09 03:27:23;;;;;;;18.03;13.37;;;;;;;12.91;100.00;100285.31;5311281;26;20244;-74
2024/04/09 03:29:49;;;;;;;19.93;13.37;;;;;;;13.15;100.00;100324.72;5310631;26;20338;-74
2024/04/09 03:32:14;;;;;;;24.30;14.17;;;;;;;13.37;100.00;100360.09;5305452;26;20258;-74
2024/04/09 03:34:40;;;;;;;19.67;14.90;;;;;;;13.14;100.00;100352.72;5314919;26;20247;-75
2024/04/09 03:37:05;;;;;;;21.60;14.33;;;;;;;13.12;100.00;100346.72;5310225;26;20273;-75
2024/04/09 03:39:30;;;;;;;20.97;15.40;;;;;;;13.15;100.00;100323.91;5314406;26;20703;-75
2024/04/09 03:41:56;;;;;;;22.10;17.03;;;;;;;13.33;100.00;100354.31;5317274;26;20251;-75
2024/04/09 03:44:21;;;;;;;22.87;15.90;;;;;;;13.05;100.00;100325.28;5315284;26;20280;-75
2024/04/09 03:46:47;;;;;;;22.00;15.93;;;;;;;13.14;100.00;100314.22;5309822;26;20252;-74
2024/04/09 03:49:12;;;;;;;21.30;15.67;;;;;;;13.53;100.00;100380.19;5314492;26;20357;-74
2024/04/09 03:51:37;;;;;;;24.70;15.40;;;;;;;13.68;100.00;100382.44;5313871;26;20267;-74
2024/04/09 03:54:03;;;;;;;27.70;16.03;;;;;;;13.40;100.00;100330.00;5317787;26;20256;-74
2024/04/09 03:56:28;;;;;;;25.97;16.53;;;;;;;13.37;100.00;100311.63;5312095;26;20259;-74
2024/04/09 03:58:54;;;;;;;25.07;16.20;;;;;;;13.13;100.00;100270.28;5305554;26;20260;-75
2024/04/09 04:01:19;;;;;;;22.33;16.57;;;;;;;13.21;100.00;100294.19;5308732;26;20946;-74
2024/04/09 04:03:47;;;;;;;22.80;14.87;;;;;;;13.40;100.00;100302.25;5312086;26;20256;-75
2024/04/09 04:06:13;;;;;;;22.47;15.83;;;;;;;14.03;100.00;100369.06;5299707;26;20240;-74
2024/04/09 04:08:40;;;;;;;24.07;16.43;;;;;;;13.21;100.00;100261.06;5309122;26;21031;-74
2024/04/09 04:11:10;;;;;;;20.80;15.90;;;;;;;13.76;100.00;100366.75;5311281;26;21169;-74
2024/04/09 04:13:37;;;;;;;21.27;17.00;;;;;;;13.52;100.00;100340.81;5313286;26;20531;-75
2024/04/09 04:16:09;;;;;;;24.10;17.10;;;;;;;13.88;100.00;100391.03;5308627;26;20467;-75
2024/04/09 04:18:39;;;;;;;19.50;16.57;;;;;;;13.80;100.00;100369.84;5309865;26;20462;-74
2024/04/09 04:21:06;;;;;;;25.87;16.57;;;;;;;13.96;100.00;100365.63;5296887;26;20474;-74
2024/04/09 04:23:32;;;;;;;21.50;16.40;;;;;;;13.29;100.00;100268.84;5306178;26;20483;-75
2024/04/09 04:26:07;;;;;;;22.87;16.37;;;;;;;13.34;100.00;100279.75;5310524;26;20518;-75
2024/04/09 04:28:37;;;;;;;26.33;15.63;;;;;;;13.87;100.00;100346.28;5312744;26;20277;-74
2024/04/09 04:31:23;;;;;;;21.67;15.87;;;;;;;13.84;100.00;100359.41;5305980;26;20462;-74
2024/04/09 04:33:50;;;;;;;23.57;15.93;;;;;;;13.86;100.00;100341.94;5338831;26;20618;-74
2024/04/09 04:36:16;;;;;;;27.37;15.70;;;;;;;13.85;100.00;100351.06;5308501;26;20690;-74
2024/04/09 04:38:42;;;;;;;18.97;14.50;;;;;;;13.65;100.00;100329.00;5314058;26;20470;-74
2024/04/09 04:41:08;;;;;;;21.27;15.03;;;;;;;13.77;100.00;100357.63;5312696;26;20634;-74
2024/04/09 04:43:35;;;;;;;20.43;15.30;;;;;;;13.79;100.00;100362.78;5288298;26;20568;-74
2024/04/09 04:46:01;;;;;;;20.80;14.97;;;;;;;13.39;100.00;100300.59;5312150;26;20287;-74
2024/04/09 04:48:29;;;;;;;22.73;15.07;;;;;;;13.00;100.00;100238.19;5310703;26;20568;-74
2024/04/09 04:50:55;;;;;;;19.23;13.30;;;;;;;12.97;100.00;100242.16;5311040;26;20348;-74
2024/04/09 04:53:20;;;;;;;30.80;16.50;;;;;;;13.63;100.00;100375.06;5304939;26;21037;-75
2024/04/09 04:55:47;;;;;;;20.83;14.70;;;;;;;13.55;100.00;100365.44;5319197;26;20288;-74
2024/04/09 04:58:12;;;;;;;21.70;13.73;;;;;;;13.78;100.00;100399.72;5317050;26;20752;-75
2024/04/09 05:00:41;;;;;;;20.07;13.40;;;;;;;13.30;100.00;100314.38;5318802;26;20478;-74
2024/04/09 05:03:07;;;;;;;17.60;12.37;;;;;;;13.20;100.00;100297.94;5310607;26;20609;-74
2024/04/09 05:05:33;;;;;;;18.60;11.87;;;;;;;13.85;100.00;100401.47;5309044;26;20522;-73
2024/04/09 05:07:59;;;;;;;18.10;11.67;;;;;;;13.65;100.00;100407.97;5313327;26;20236;-74
2024/04/09 05:10:24;;;;;;;18.37;12.00;;;;;;;13.40;100.00;100394.66;5313294;26;20469;-75
2024/04/09 05:12:51;;;;;;;18.93;11.53;;;;;;;13.61;100.00;100431.06;5341203;26;20614;-75
2024/04/09 05:15:18;;;;;;;16.83;11.33;;;;;;;13.75;100.00;100459.47;5317149;26;20239;-75
2024/04/09 05:17:44;;;;;;;18.90;11.77;;;;;;;13.03;100.00;100319.31;5318858;26;20475;-74
2024/04/09 05:20:11;;;;;;;18.17;11.67;;;;;;;13.63;100.00;100409.28;5320788;26;20592;-74
2024/04/09 05:22:37;;;;;;;17.63;10.37;;;;;;;14.12;100.00;100499.00;5305392;26;21083;-74
2024/04/09 05:25:02;;;;;;;19.33;10.63;;;;;;;13.98;100.00;100493.78;5306677;26;20474;-74
2024/04/09 05:27:28;;;;;;;15.93;9.53;;;;;;;13.27;100.00;100384.88;5307845;26;21241;-75
2024/04/09 05:29:54;;;;;;;19.07;8.93;;;;;;;14.06;100.00;100513.38;5302451;26;20368;-75
2024/04/09 05:32:20;;;;;;;18.77;10.83;;;;;;;13.78;100.00;100510.22;5312517;26;20244;-75
2024/04/09 05:34:45;;;;;;;15.20;10.80;;;;;;;13.40;100.00;100451.25;5306116;26;20604;-75
2024/04/09 05:37:11;;;;;;;15.73;9.53;;;;;;;13.69;100.00;100506.19;5313692;26;20281;-75
2024/04/09 05:39:36;;;;;;;17.70;9.47;;;;;;;13.43;100.00;100455.34;5311311;26;20247;-75
2024/04/09 05:42:02;;;;;;;13.83;8.80;;;;;;;13.70;100.00;100497.06;5314562;26;20248;-74
2024/04/09 05:44:27;;;;;;;16.80;7.87;;;;;;;13.90;100.00;100552.59;5315643;26;20289;-75
2024/04/09 05:46:53;;;;;;;11.77;8.33;;;;;;;13.68;100.00;100523.44;5310489;26;20871;-74
2024/04/09 05:49:21;;;;;;;11.23;7.20;;;;;;;13.77;100.00;100540.94;5342188;26;20282;-74
2024/04/09 05:51:47;;;;;;;15.07;6.30;;;;;;;13.50;100.00;100515.34;5312434;26;20248;-75
2024/04/09 05:54:13;;;;;;;13.03;6.90;;;;;;;13.59;100.00;100548.19;5313670;26;20532;-75
2024/04/09 05:56:38;;;;;;;10.80;5.97;;;;;;;13.62;100.00;100545.06;5315401;26;20485;-75
2024/04/09 05:59:04;;;;;;;9.30;6.20;;;;;;;13.70;100.00;100560.94;5311515;26;20262;-75
2024/04/09 06:01:29;;;;;;;16.93;6.70;;;;;;;13.77;100.00;100586.75;5313076;26;21108;-75
2024/04/09 06:03:55;;;;;;;10.60;5.63;;;;;;;13.93;100.00;100619.53;5307908;26;21114;-75
2024/04/09 06:06:20;;;;;;;10.43;5.73;;;;;;;14.23;100.00;100671.66;5312922;26;20734;-75
2024/04/09 06:08:45;;;;;;;15.20;6.40;;;;;;;13.69;100.00;100583.53;5307510;26;20294;-75
2024/04/09 06:11:11;;;;;;;12.90;6.80;;;;;;;14.10;100.00;100635.94;5311829;26;20242;-75
2024/04/09 06:13:38;;;;;;;11.77;6.07;;;;;;;13.66;100.00;100560.56;5315945;26;20252;-74
2024/04/09 06:16:04;;;;;;;11.60;6.43;;;;;;;13.63;100.00;100555.63;5309938;26;20354;-74
2024/04/09 06:18:29;;;;;;;11.97;6.47;;;;;;;13.81;100.00;100584.44;5309916;26;20471;-74
2024/04/09 06:20:55;;;;;;;10.93;6.40;;;;;;;13.39;100.00;100541.16;5312627;26;21040;-75
2024/04/09 06:23:21;;;;;;;10.53;6.10;;;;;;;14.09;100.00;100656.69;5309135;26;20736;-74
2024/04/09 06:25:58;;;;;;;11.90;6.33;;;;;;;13.28;100.00;100529.28;5308788;26;20261;-75
2024/04/09 06:28:24;;;;;;;10.80;5.70;;;;;;;14.15;100.00;100663.88;5310914;26;20500;-74
2024/04/09 06:30:49;;;;;;;10.87;6.43;;;;;;;13.96;100.00;100648.75;5311471;26;20667;-75
2024/04/09 06:33:14;;;;;;;11.73;6.23;;;;;;;14.00;100.00;100641.84;5308552;26;20531;-75
2024/04/09 06:35:40;;;;;;;10.63;5.87;;;;;;;12.93;100.00;100488.63;5311245;26;20632;-75
2024/04/09 06:38:06;;;;;;;10.03;5.80;;;;;;;13.50;100.00;100588.91;5312012;26;20243;-74
2024/04/09 06:40:32;;;;;;;11.10;5.40;;;;;;;13.60;100.00;100601.88;5311340;26;22677;-74
2024/04/09 06:42:58;;;;;;;10.73;3.53;;;;;;;13.89;100.00;100710.03;5312311;26;20258;-74
2024/04/09 06:45:24;;;;;;;6.50;1.87;;;;;;;13.38;100.00;100659.94;5320019;26;20469;-74
2024/04/09 06:47:49;;;;;;;6.83;1.80;;;;;;;13.27;100.00;100643.44;5311592;26;20593;-75
2024/04/09 06:50:15;;;;;;;8.97;1.90;;;;;;;13.56;100.00;100708.47;5312976;26;20967;-75
2024/04/09 06:52:41;;;;;;;8.20;1.70;;;;;;;13.22;100.00;100672.06;5317341;26;20610;-75
2024/04/09 06:55:07;;;;;;;9.70;1.50;;;;;;;12.86;100.00;100619.75;5311556;26;20475;-75
2024/04/09 06:57:32;;;;;;;5.50;1.40;;;;;;;13.00;100.00;100650.09;5311553;26;20470;-75
2024/04/09 06:59:58;;;;;;;9.80;1.63;;;;;;;13.02;100.00;100648.81;5314223;26;20598;-75
2024/04/09 07:02:23;;;;;;;8.20;1.60;;;;;;;12.81;100.00;100655.38;5312013;26;20244;-75
2024/04/09 07:04:49;;;;;;;8.47;1.90;;;;;;;13.15;100.00;100712.50;5307899;26;20732;-75
2024/04/09 07:07:14;;;;;;;7.53;1.93;;;;;;;13.04;100.00;100681.72;5318011;26;20244;-75
2024/04/09 07:09:40;;;;;;;11.40;1.77;;;;;;;13.06;100.00;100678.81;5311425;26;20366;-75
2024/04/09 07:12:06;;;;;;;9.80;1.40;;;;;;;12.83;100.00;100682.91;5316474;26;20710;-75
2024/04/09 07:14:31;;;;;;;8.80;1.50;;;;;;;13.49;100.00;100772.38;5308867;26;20243;-74
2024/04/09 07:16:56;;;;;;;7.80;1.67;;;;;;;12.96;100.00;100703.53;5317240;26;20294;-75
2024/04/09 07:19:22;;;;;;;8.67;1.70;;;;;;;13.36;100.00;100737.44;5311602;26;20628;-75
2024/04/09 07:21:48;;;;;;;10.57;1.63;;;;;;;13.30;100.00;100715.72;5312596;26;20571;-75
2024/04/09 07:24:13;;;;;;;6.73;1.50;;;;;;;13.05;100.00;100678.00;5315031;26;20780;-74
2024/04/09 07:26:39;;;;;;;12.43;1.63;;;;;;;13.39;100.00;100734.31;5313614;26;20465;-75
2024/04/09 07:29:05;;;;;;;8.70;1.53;;;;;;;13.73;100.00;100774.22;5312724;26;20490;-74
2024/04/09 07:31:31;;;;;;;8.83;2.00;;;;;;;13.09;100.00;100670.31;5313625;26;20692;-74
2024/04/09 07:33:56;;;;;;;7.93;1.77;;;;;;;13.69;100.00;100781.13;5311816;26;20252;-75
2024/04/09 07:36:21;;;;;;;10.80;1.70;;;;;;;13.54;100.00;100775.25;5315752;26;20692;-75
2024/04/09 07:38:52;;;;;;;9.17;1.70;;;;;;;13.14;100.00;100716.25;5310511;26;20291;-75
2024/04/09 07:41:18;;;;;;;11.70;1.80;;;;;;;13.33;100.00;100692.91;5318563;26;20728;-75
2024/04/09 07:43:44;;;;;;;14.77;1.87;;;;;;;13.26;100.00;100695.69;5312936;26;20477;-75
2024/04/09 07:46:09;;;;;;;9.00;1.50;;;;;;;13.05;100.00;100666.41;5311826;26;21567;-75
2024/04/09 07:48:35;;;;;;;11.13;1.90;;;;;;;13.76;100.00;100733.34;5316338;26;20734;-74
2024/04/09 07:51:00;;;;;;;8.70;1.77;;;;;;;13.12;100.00;100646.44;5316429;26;20299;-74
2024/04/09 07:53:26;;;;;;;9.50;1.60;;;;;;;13.77;100.00;100774.63;5316807;26;20255;-74
2024/04/09 07:55:53;;;;;;;7.23;1.63;;;;;;;12.71;100.00;100622.75;5322362;26;21147;-74
2024/04/09 07:58:18;;;;;;;10.60;1.70;;;;;;;13.76;100.00;100760.31;5313594;26;20478;-74
2024/04/09 08:00:44;;;;;;;11.43;2.03;;;;;;;13.76;100.00;100778.34;5324481;26;21193;-74
2024/04/09 08:03:09;;;;;;;9.90;1.63;;;;;;;13.20;100.00;100691.13;5317041;26;20853;-75
2024/04/09 08:05:36;;;;;;;9.80;1.93;;;;;;;12.94;100.00;100664.41;5310586;26;20243;-75
2024/04/09 08:08:01;;;;;;;8.70;1.60;;;;;;;13.08;100.00;100677.56;5309250;26;20246;-74
2024/04/09 08:10:27;;;;;;;9.13;1.87;;;;;;;12.95;100.00;100639.13;5318912;26;21040;-74
2024/04/09 08:12:54;;;;;;;12.27;2.07;;;;;;;13.31;100.00;100687.75;5315504;26;20485;-74
2024/04/09 08:15:21;;;;;;;8.27;1.80;;;;;;;13.73;100.00;100768.84;5311870;26;20538;-74
2024/04/09 08:17:50;;;;;;;9.50;2.23;;;;;;;12.96;100.00;100654.25;5314092;26;20617;-75
2024/04/09 08:20:16;;;;;;;8.60;1.90;;;;;;;13.85;100.00;100751.94;5313429;26;20478;-74
2024/04/09 08:22:49;;;;;;;9.80;1.90;;;;;;;13.08;100.00;100657.91;5299073;26;20476;-75
2024/04/09 08:25:15;;;;;;;9.23;2.10;;;;;;;13.87;100.00;100758.75;5318085;26;20473;-74
2024/04/09 08:27:42;;;;;;;9.90;1.80;;;;;;;13.49;100.00;100715.78;5311041;26;20574;-74
2024/04/09 08:30:12;;;;;;;8.77;1.80;;;;;;;12.94;100.00;100618.66;5296945;26;20463;-74
2024/04/09 08:32:39;;;;;;;8.47;1.90;;;;;;;13.92;100.00;100766.19;5312090;26;20843;-75
2024/04/09 08:35:04;;;;;;;8.70;1.93;;;;;;;13.09;100.00;100635.28;5311307;26;20473;-74
2024/04/09 08:37:30;;;;;;;9.53;2.10;;;;;;;12.98;100.00;100668.31;5317193;26;21129;-74
2024/04/09 08:39:56;;;;;;;9.07;1.77;;;;;;;13.64;100.00;100785.53;5309476;26;21337;-75
2024/04/09 08:42:23;;;;;;;10.20;2.10;;;;;;;13.29;100.00;100715.97;5304733;26;20340;-74
2024/04/09 08:44:51;;;;;;;13.60;2.80;;;;;;;12.94;100.00;100684.09;5308675;26;20474;-75
2024/04/09 08:47:22;;;;;;;9.40;2.10;;;;;;;13.25;100.00;100741.63;5310883;26;20520;-75
2024/04/09 08:49:49;;;;;;;11.13;2.00;;;;;;;13.19;100.00;100692.19;5317903;26;20996;-75
2024/04/09 08:52:18;;;;;;;11.83;2.20;;;;;;;13.46;100.00;100756.66;5311677;26;20575;-75
2024/04/09 08:54:44;;;;;;;12.30;2.67;;;;;;;13.70;100.00;100798.94;5314470;26;20508;-75
2024/04/09 08:57:09;;;;;;;10.77;2.40;;;;;;;13.11;100.00;100735.53;5317376;26;20478;-75
2024/04/09 08:59:36;;;;;;;11.73;2.50;;;;;;;13.34;100.00;100760.06;5315632;26;20342;-75
2024/04/09 09:02:03;;;;;;;11.60;2.50;;;;;;;13.29;100.00;100784.13;5315006;26;20252;-74
2024/04/09 09:04:38;;;;;;;8.20;1.80;;;;;;;13.46;100.00;100797.88;5315086;26;20474;-75
2024/04/09 09:07:15;;;;;;;11.43;2.20;;;;;;;13.36;100.00;100773.28;5307658;26;20872;-75
2024/04/09 09:09:41;;;;;;;11.87;2.60;;;;;;;13.17;100.00;100741.94;5312195;26;20834;-75
2024/04/09 09:12:07;;;;;;;20.53;3.70;;;;;;;13.35;100.00;100803.97;5313755;26;20542;-75
2024/04/09 09:14:33;;;;;;;12.87;2.90;;;;;;;13.34;100.00;100803.16;5316950;26;20540;-75
2024/04/09 09:17:02;;;;;;;10.57;2.63;;;;;;;12.75;100.00;100736.16;5314900;26;20248;-75
2024/04/09 09:19:32;;;;;;;11.57;2.93;;;;;;;13.16;100.00;100796.81;5311692;26;21423;-75
2024/04/09 09:22:03;;;;;;;13.27;2.77;;;;;;;12.94;100.00;100801.72;5311539;26;20603;-75
2024/04/09 09:24:28;;;;;;;13.00;2.80;;;;;;;13.10;100.00;100811.97;5310806;26;20496;-75
2024/04/09 09:27:01;;;;;;;11.13;2.20;;;;;;;13.39;100.00;100837.50;5310984;26;20585;-75
2024/04/09 09:29:27;;;;;;;14.93;2.77;;;;;;;13.18;100.00;100835.97;5315290;26;20626;-74
2024/04/09 09:31:53;;;;;;;12.00;2.40;;;;;;;12.96;100.00;100829.22;5310723;26;21002;-75
2024/04/09 09:34:24;;;;;;;17.87;3.30;;;;;;;12.39;100.00;100751.88;5310467;26;20474;-75
2024/04/09 09:36:54;;;;;;;11.97;3.03;;;;;;;12.84;100.00;100835.31;5311352;26;20285;-75
2024/04/09 09:39:21;;;;;;;15.00;3.00;;;;;;;12.34;100.00;100754.34;5319631;26;20483;-75
2024/04/09 09:41:47;;;;;;;8.93;2.40;;;;;;;12.00;100.00;100693.66;5314596;26;20486;-76
2024/04/09 09:44:14;;;;;;;18.40;2.90;;;;;;;12.54;100.00;100783.06;5315187;26;20477;-75
2024/04/09 09:46:44;;;;;;;21.57;4.53;;;;;;;12.47;100.00;100777.72;5313175;26;20462;-75
2024/04/09 09:49:11;;;;;;;15.87;2.83;;;;;;;12.51;100.00;100783.47;5315893;26;21033;-76
2024/04/09 09:51:36;;;;;;;8.93;2.77;;;;;;;12.60;100.00;100788.41;5300230;26;21671;-75
2024/04/09 09:54:02;;;;;;;12.53;3.33;;;;;;;12.71;100.00;100783.41;5308338;26;20533;-74
2024/04/09 09:56:29;;;;;;;14.20;3.10;;;;;;;12.74;100.00;100791.88;5322593;26;20551;-75
2024/04/09 09:58:56;;;;;;;14.70;2.90;;;;;;;12.43;100.00;100739.63;5320843;26;20318;-74
2024/04/09 10:01:23;;;;;;;11.20;2.70;;;;;;;12.38;100.00;100715.25;5318095;26;20479;-75
2024/04/09 10:03:50;;;;;;;15.40;3.50;;;;;;;13.07;100.00;100842.03;5312935;26;20467;-75
2024/04/09 10:06:16;;;;;;;13.00;2.70;;;;;;;13.06;100.00;100829.59;5318712;26;20489;-75
2024/04/09 10:08:42;;;;;;;12.07;3.20;;;;;;;12.40;100.00;100748.13;5310012;26;20605;-75
2024/04/09 10:11:07;;;;;;;13.20;2.63;;;;;;;12.94;100.00;100812.50;5319009;26;20251;-74
2024/04/09 10:13:33;;;;;;;9.53;2.47;;;;;;;13.51;100.00;100849.25;5317644;26;20629;-75
2024/04/09 10:16:00;;;;;;;14.63;2.83;;;;;;;13.65;100.00;100849.97;5318933;26;20729;-74
2024/04/09 10:18:37;;;;;;;13.60;2.90;;;;;;;14.44;100.00;100844.94;5314101;26;20244;-74
2024/04/09 10:21:03;;;;;;;14.50;3.10;;;;;;;13.82;100.00;100738.91;5321362;26;21289;-75
2024/04/09 10:23:28;;;;;;;12.60;3.13;;;;;;;14.50;100.00;100814.34;5322018;26;20478;-74
2024/04/09 10:25:57;;;;;;;10.70;2.53;;;;;;;14.51;100.00;100805.19;5310288;26;20583;-75
2024/04/09 10:28:27;;;;;;;15.43;3.50;;;;;;;14.76;100.00;100845.63;5317300;26;20247;-75
2024/04/09 10:30:53;;;;;;;10.60;3.23;;;;;;;13.41;100.00;100713.38;5293530;26;20472;-75
2024/04/09 10:33:30;;;;;;;12.27;3.17;;;;;;;14.22;100.00;100815.66;5317085;26;20664;-75
2024/04/09 10:35:58;;;;;;;10.37;3.40;;;;;;;13.91;100.00;100826.53;5316725;26;20358;-75
2024/04/09 10:38:25;;;;;;;10.47;3.60;;;;;;;14.35;100.00;100854.34;5315740;26;20863;-75
2024/04/09 10:40:51;;;;;;;16.10;3.63;;;;;;;14.51;100.00;100850.25;5313210;26;20902;-75
2024/04/09 10:43:17;;;;;;;13.53;3.20;;;;;;;14.42;100.00;100826.25;5312311;26;22618;-75
2024/04/09 10:45:42;;;;;;;9.33;3.10;;;;;;;14.63;100.00;100840.38;5309780;26;20498;-74
2024/04/09 10:48:08;;;;;;;10.77;3.40;;;;;;;14.82;100.00;100830.41;5332539;26;20606;-74
2024/04/09 10:50:34;;;;;;;10.43;3.23;;;;;;;13.69;100.00;100677.88;5302209;26;20251;-75
2024/04/09 10:52:59;;;;;;;11.00;3.33;;;;;;;14.46;100.00;100732.16;5309367;26;20252;-74
2024/04/09 10:55:25;;;;;;;10.57;3.87;;;;;;;14.93;100.00;100845.84;5312881;26;21073;-74
2024/04/09 10:57:52;;;;;;;9.50;3.57;;;;;;;14.00;100.00;100712.81;5311857;26;20263;-75
2024/04/09 11:00:18;;;;;;;10.20;3.53;;;;;;;14.30;100.00;100801.06;5305688;26;20642;-75
2024/04/09 11:02:45;;;;;;;9.07;3.07;;;;;;;14.31;100.00;100770.31;5311830;26;20471;-75
2024/04/09 11:05:12;;;;;;;9.17;3.03;;;;;;;14.79;100.00;100812.78;5337276;26;20527;-75